createdAt,value
2023-02-14T00:01:21.272Z,100.00
2023-02-14T00:03:24.008Z,100.00
2023-02-14T00:05:26.727Z,100.00
2023-02-14T00:07:29.373Z,100.00
2023-02-14T00:09:32.294Z,100.00
2023-02-14T00:11:34.969Z,100.00
2023-02-14T00:13:37.606Z,100.00
2023-02-14T00:15:40.650Z,100.00
2023-02-14T00:17:43.345Z,100.00
2023-02-14T00:19:46.152Z,100.00
2023-02-14T00:21:49.857Z,100.00
2023-02-14T00:23:52.584Z,100.00
2023-02-14T00:25:55.270Z,100.00
2023-02-14T00:27:57.940Z,100.00
2023-02-14T00:30:02.909Z,100.00
2023-02-14T00:32:07.028Z,100.00
2023-02-14T00:34:10.728Z,100.00
2023-02-14T00:36:13.483Z,100.00
2023-02-14T00:38:16.141Z,100.00
2023-02-14T00:40:18.952Z,100.00
2023-02-14T00:42:21.619Z,100.00
2023-02-14T00:44:24.952Z,100.00
2023-02-14T00:46:28.068Z,100.00
2023-02-14T00:48:32.051Z,100.00
2023-02-14T00:50:34.744Z,100.00
2023-02-14T00:52:37.471Z,100.00
2023-02-14T00:54:40.166Z,100.00
2023-02-14T00:56:43.124Z,100.00
2023-02-14T00:58:46.645Z,100.00
2023-02-14T01:00:49.487Z,100.00
2023-02-14T01:02:52.255Z,100.00
2023-02-14T01:04:56.390Z,100.00
2023-02-14T01:06:58.991Z,100.00
2023-02-14T01:09:01.772Z,100.00
2023-02-14T01:11:09.213Z,100.00
2023-02-14T01:13:12.780Z,100.00
2023-02-14T01:15:15.412Z,100.00
2023-02-14T01:17:18.039Z,100.00
2023-02-14T01:19:20.693Z,100.00
2023-02-14T01:21:27.097Z,100.00
2023-02-14T01:23:29.849Z,100.00
2023-02-14T01:25:32.786Z,100.00
2023-02-14T01:27:35.458Z,100.00
2023-02-14T01:29:38.179Z,100.00
2023-02-14T01:31:40.927Z,100.00
2023-02-14T01:33:46.052Z,100.00
2023-02-14T01:35:48.877Z,100.00
2023-02-14T01:37:52.821Z,100.00
2023-02-14T01:39:55.535Z,100.00
2023-02-14T01:41:58.222Z,100.00
2023-02-14T01:44:02.934Z,100.00
2023-02-14T01:46:05.933Z,100.00
2023-02-14T01:48:10.738Z,100.00
2023-02-14T01:50:19.509Z,100.00
2023-02-14T01:52:26.037Z,100.00
2023-02-14T01:54:31.784Z,100.00
2023-02-14T01:56:37.860Z,100.00
2023-02-14T01:58:45.932Z,100.00
2023-02-14T02:00:57.401Z,100.00
2023-02-14T02:03:02.515Z,100.00
2023-02-14T02:05:05.252Z,100.00
2023-02-14T02:07:11.420Z,100.00
2023-02-14T02:09:18.264Z,100.00
2023-02-14T02:11:22.296Z,100.00
2023-02-14T02:13:24.932Z,100.00
2023-02-14T02:15:29.275Z,100.00
2023-02-14T02:17:44.360Z,100.00
2023-02-14T02:20:16.068Z,100.00
2023-02-14T02:22:51.232Z,100.00
2023-02-14T02:25:03.731Z,100.00
2023-02-14T02:27:27.008Z,100.00
2023-02-14T02:30:02.213Z,100.00
2023-02-14T02:32:35.222Z,100.00
2023-02-14T02:35:16.702Z,100.00
2023-02-14T02:37:34.199Z,100.00
2023-02-14T02:39:53.956Z,100.00
2023-02-14T02:42:05.019Z,100.00
2023-02-14T02:44:16.348Z,100.00
2023-02-14T02:46:43.339Z,100.00
2023-02-14T02:48:54.439Z,100.00
2023-02-14T02:51:15.452Z,100.00
2023-02-14T02:53:21.260Z,100.00
2023-02-14T02:55:51.840Z,100.00
2023-02-14T02:57:55.204Z,100.00
2023-02-14T03:00:00.175Z,100.00
2023-02-14T03:02:07.503Z,100.00
2023-02-14T03:04:30.860Z,100.00
2023-02-14T03:06:35.977Z,100.00
2023-02-14T03:08:38.713Z,100.00
2023-02-14T03:10:41.538Z,100.00
2023-02-14T03:12:57.679Z,100.00
2023-02-14T03:15:13.053Z,100.00
2023-02-14T03:17:26.002Z,100.00
2023-02-14T03:20:06.125Z,100.00
2023-02-14T03:22:22.708Z,100.00
2023-02-14T03:24:30.071Z,100.00
2023-02-14T03:26:40.169Z,100.00
2023-02-14T03:28:48.890Z,100.00
2023-02-14T03:30:59.709Z,100.00
2023-02-14T03:33:07.331Z,100.00
2023-02-14T03:35:16.880Z,100.00
2023-02-14T03:37:25.083Z,100.00
2023-02-14T03:39:33.868Z,100.00
2023-02-14T03:41:40.670Z,100.00
2023-02-14T03:43:47.363Z,100.00
2023-02-14T03:45:55.682Z,100.00
2023-02-14T03:48:02.978Z,100.00
2023-02-14T03:50:10.664Z,100.00
2023-02-14T03:52:15.381Z,100.00
2023-02-14T03:54:22.874Z,100.00
2023-02-14T03:56:33.375Z,100.00
2023-02-14T03:58:39.722Z,100.00
2023-02-14T04:00:43.141Z,100.00
2023-02-14T04:02:49.094Z,100.00
2023-02-14T04:04:53.435Z,100.00
2023-02-14T04:06:56.332Z,100.00
2023-02-14T04:08:58.985Z,100.00
2023-02-14T04:11:04.317Z,100.00
2023-02-14T04:13:07.052Z,100.00
2023-02-14T04:15:10.441Z,100.00
2023-02-14T04:17:30.771Z,100.00
2023-02-14T04:19:33.513Z,100.00
2023-02-14T04:21:36.146Z,100.00
2023-02-14T04:23:38.744Z,100.00
2023-02-14T04:25:43.017Z,100.00
2023-02-14T04:27:47.101Z,100.00
2023-02-14T04:29:52.633Z,100.00
2023-02-14T04:31:55.470Z,100.00
2023-02-14T04:33:58.219Z,100.00
2023-02-14T04:36:01.495Z,100.00
2023-02-14T04:38:05.267Z,100.00
2023-02-14T04:40:09.414Z,100.00
2023-02-14T04:42:13.444Z,100.00
2023-02-14T04:44:17.543Z,100.00
2023-02-14T04:46:20.178Z,100.00
2023-02-14T04:48:22.824Z,100.00
2023-02-14T04:50:25.949Z,100.00
2023-02-14T04:52:28.693Z,100.00
2023-02-14T04:54:31.754Z,100.00
2023-02-14T04:56:34.449Z,100.00
2023-02-14T04:58:37.906Z,100.00
2023-02-14T05:00:42.108Z,100.00
2023-02-14T05:02:44.766Z,100.00
2023-02-14T05:04:49.667Z,100.00
2023-02-14T05:06:52.537Z,100.00
2023-02-14T05:08:55.160Z,100.00
2023-02-14T05:10:58.065Z,100.00
2023-02-14T05:13:02.362Z,100.00
2023-02-14T05:15:05.306Z,100.00
2023-02-14T05:17:09.403Z,100.00
2023-02-14T05:19:12.079Z,100.00
2023-02-14T05:21:14.882Z,100.00
2023-02-14T05:23:17.606Z,100.00
2023-02-14T05:25:20.332Z,100.00
2023-02-14T05:27:22.940Z,100.00
2023-02-14T05:29:25.692Z,100.00
2023-02-14T05:31:28.483Z,100.00
2023-02-14T05:33:32.524Z,100.00
2023-02-14T05:35:35.284Z,100.00
2023-02-14T05:37:37.923Z,100.00
2023-02-14T05:39:40.626Z,100.00
2023-02-14T05:41:43.390Z,100.00
2023-02-14T05:43:46.043Z,100.00
2023-02-14T05:45:49.110Z,100.00
2023-02-14T05:47:51.962Z,100.00
2023-02-14T05:49:55.904Z,100.00
2023-02-14T05:51:58.532Z,100.00
2023-02-14T05:54:01.286Z,100.00
2023-02-14T05:56:04.347Z,100.00
2023-02-14T05:58:07.010Z,100.00
2023-02-14T06:00:11.483Z,100.00
2023-02-14T06:02:15.864Z,100.00
2023-02-14T06:04:18.686Z,100.00
2023-02-14T06:06:22.725Z,100.00
2023-02-14T06:08:25.560Z,100.00
2023-02-14T06:10:28.286Z,100.00
2023-02-14T06:12:31.081Z,100.00
2023-02-14T06:14:33.711Z,100.00
2023-02-14T06:16:36.541Z,100.00
2023-02-14T06:18:39.282Z,100.00
2023-02-14T06:20:41.877Z,100.00
2023-02-14T06:22:45.959Z,100.00
2023-02-14T06:24:48.557Z,100.00
2023-02-14T06:26:51.296Z,100.00
2023-02-14T06:28:54.669Z,100.00
2023-02-14T06:30:57.454Z,100.00
2023-02-14T06:33:03.199Z,100.00
2023-02-14T06:35:06.489Z,100.00
2023-02-14T06:37:09.436Z,100.00
2023-02-14T06:39:13.462Z,100.00
2023-02-14T06:41:17.196Z,100.00
2023-02-14T06:43:19.884Z,100.00
2023-02-14T06:45:22.508Z,100.00
2023-02-14T06:47:25.216Z,100.00
2023-02-14T06:49:27.965Z,100.00
2023-02-14T06:51:30.715Z,100.00
2023-02-14T06:53:33.657Z,100.00
2023-02-14T06:55:37.633Z,100.00
2023-02-14T06:57:40.495Z,100.00
2023-02-14T06:59:43.154Z,100.00
2023-02-14T07:01:45.904Z,100.00
2023-02-14T07:03:48.574Z,100.00
2023-02-14T07:05:51.305Z,100.00
2023-02-14T07:07:54.254Z,100.00
2023-02-14T07:09:56.940Z,100.00
2023-02-14T07:12:01.072Z,100.00
2023-02-14T07:14:03.702Z,100.00
2023-02-14T07:16:06.866Z,100.00
2023-02-14T07:18:10.567Z,100.00
2023-02-14T07:20:14.610Z,100.00
2023-02-14T07:22:17.319Z,100.00
2023-02-14T07:24:19.981Z,100.00
2023-02-14T07:26:22.741Z,100.00
2023-02-14T07:28:26.924Z,100.00
2023-02-14T07:30:29.690Z,100.00
2023-02-14T07:32:32.530Z,100.00
2023-02-14T07:34:35.212Z,100.00
2023-02-14T07:36:38.706Z,100.00
2023-02-14T07:38:41.464Z,100.00
2023-02-14T07:40:44.091Z,100.00
2023-02-14T07:42:53.568Z,100.00
2023-02-14T07:44:57.539Z,100.00
2023-02-14T07:47:00.236Z,100.00
2023-02-14T07:49:02.957Z,100.00
2023-02-14T07:51:05.674Z,100.00
2023-02-14T07:53:09.174Z,100.00
2023-02-14T07:55:12.020Z,100.00
2023-02-14T07:57:14.726Z,100.00
2023-02-14T07:59:17.650Z,100.00
2023-02-14T08:01:22.205Z,100.00
2023-02-14T08:03:25.078Z,100.00
2023-02-14T08:05:27.836Z,100.00
2023-02-14T08:07:30.587Z,100.00
2023-02-14T08:09:33.287Z,100.00
2023-02-14T08:12:07.946Z,100.00
2023-02-14T08:14:10.707Z,100.00
2023-02-14T08:16:13.428Z,100.00
2023-02-14T08:18:18.653Z,98.30
2023-02-14T08:20:21.562Z,98.74
2023-02-14T08:22:24.295Z,100.00
2023-02-14T08:24:27.431Z,100.00
2023-02-14T08:26:30.213Z,97.99
2023-02-14T08:28:33.540Z,91.95
2023-02-14T08:30:38.197Z,89.59
2023-02-14T08:32:41.068Z,96.07
2023-02-14T08:34:45.194Z,92.97
2023-02-14T08:36:48.418Z,84.56
2023-02-14T08:38:51.184Z,82.72
2023-02-14T08:40:53.871Z,85.84
2023-02-14T08:42:56.748Z,81.11
2023-02-14T08:44:59.517Z,82.21
2023-02-14T08:47:03.679Z,81.90
2023-02-14T08:49:06.571Z,85.91
2023-02-14T08:51:12.509Z,89.54
2023-02-14T08:53:15.199Z,86.35
2023-02-14T08:55:18.085Z,78.55
2023-02-14T08:57:21.168Z,82.22
2023-02-14T08:59:24.007Z,83.47
2023-02-14T09:01:27.685Z,83.00
2023-02-14T09:03:30.900Z,79.69
2023-02-14T09:05:34.317Z,74.71
2023-02-14T09:07:38.734Z,78.28
2023-02-14T09:09:41.749Z,75.22
2023-02-14T09:11:44.549Z,71.59
2023-02-14T09:13:48.252Z,74.69
2023-02-14T09:15:50.930Z,83.05
2023-02-14T09:17:53.674Z,80.23
2023-02-14T09:19:56.402Z,80.27
2023-02-14T09:21:59.101Z,79.47
2023-02-14T09:24:03.149Z,78.79
2023-02-14T09:26:07.914Z,81.45
2023-02-14T09:28:10.549Z,76.89
2023-02-14T09:30:14.584Z,76.59
2023-02-14T09:32:17.641Z,78.99
2023-02-14T09:34:38.019Z,77.32
2023-02-14T09:36:40.826Z,73.14
2023-02-14T09:38:43.623Z,76.60
2023-02-14T09:40:50.603Z,79.82
2023-02-14T09:43:02.139Z,77.43
2023-02-14T09:45:10.737Z,74.52
2023-02-14T09:47:22.864Z,63.10
2023-02-14T09:49:34.741Z,64.42
2023-02-14T09:51:38.826Z,62.08
2023-02-14T09:53:47.318Z,63.49
2023-02-14T09:55:56.922Z,65.46
2023-02-14T09:58:12.105Z,64.83
2023-02-14T10:00:22.403Z,63.68
2023-02-14T10:02:43.480Z,65.32
2023-02-14T10:04:58.715Z,67.75
2023-02-14T10:07:12.185Z,66.58
2023-02-14T10:09:33.589Z,64.87
2023-02-14T10:11:38.459Z,61.62
2023-02-14T10:13:46.031Z,66.65
2023-02-14T10:15:53.887Z,67.70
2023-02-14T10:18:01.742Z,71.44
2023-02-14T10:20:15.960Z,64.60
2023-02-14T10:22:20.849Z,67.01
2023-02-14T10:24:28.702Z,65.08
2023-02-14T10:26:37.075Z,61.55
2023-02-14T10:28:45.741Z,64.10
2023-02-14T10:30:57.891Z,70.78
2023-02-14T10:33:07.083Z,73.74
2023-02-14T10:35:23.715Z,72.97
2023-02-14T10:37:39.843Z,74.78
2023-02-14T10:39:58.290Z,78.99
2023-02-14T10:42:07.700Z,78.08
2023-02-14T10:44:23.592Z,78.04
2023-02-14T10:46:37.884Z,73.12
2023-02-14T10:48:52.814Z,72.02
2023-02-14T10:51:01.975Z,69.49
2023-02-14T10:53:15.008Z,69.89
2023-02-14T10:55:32.083Z,68.57
2023-02-14T10:57:38.813Z,70.10
2023-02-14T10:59:52.476Z,71.59
2023-02-14T11:01:57.327Z,75.55
2023-02-14T11:04:06.450Z,77.17
2023-02-14T11:06:10.247Z,79.31
2023-02-14T11:08:23.167Z,75.84
2023-02-14T11:10:29.735Z,78.88
2023-02-14T11:12:34.201Z,77.32
2023-02-14T11:14:38.508Z,80.15
2023-02-14T11:16:42.479Z,78.51
2023-02-14T11:18:45.323Z,78.91
2023-02-14T11:21:01.820Z,78.34
2023-02-14T11:23:19.858Z,79.43
2023-02-14T11:25:24.804Z,79.32
2023-02-14T11:27:27.827Z,79.90
2023-02-14T11:29:32.739Z,80.52
2023-02-14T11:31:39.098Z,77.99
2023-02-14T11:33:45.711Z,80.65
2023-02-14T11:35:51.590Z,79.84
2023-02-14T11:37:56.742Z,78.94
2023-02-14T11:40:01.191Z,79.69
2023-02-14T11:42:06.439Z,78.18
2023-02-14T11:44:22.317Z,76.76
2023-02-14T11:46:30.506Z,78.30
2023-02-14T11:48:38.862Z,75.87
2023-02-14T11:50:45.321Z,74.69
2023-02-14T11:52:52.112Z,74.84
2023-02-14T11:54:54.934Z,75.04
2023-02-14T11:57:02.678Z,74.80
2023-02-14T11:59:06.345Z,75.42
2023-02-14T12:01:13.611Z,76.30
2023-02-14T12:03:20.033Z,75.23
2023-02-14T12:05:27.258Z,74.32
2023-02-14T12:07:34.527Z,75.33
2023-02-14T12:09:40.674Z,77.27
2023-02-14T12:11:56.467Z,78.43
2023-02-14T12:13:59.875Z,75.16
2023-02-14T12:16:03.816Z,74.15
2023-02-14T12:18:37.947Z,71.16
2023-02-14T12:20:46.439Z,72.27
2023-02-14T12:22:56.541Z,72.85
2023-02-14T12:25:07.443Z,74.83
2023-02-14T12:27:21.071Z,72.64
2023-02-14T12:29:27.991Z,71.68
2023-02-14T12:31:31.576Z,71.93
2023-02-14T12:33:34.389Z,70.06
2023-02-14T12:35:48.472Z,70.41
2023-02-14T12:38:04.600Z,67.13
2023-02-14T12:40:17.546Z,68.70
2023-02-14T12:42:35.482Z,68.83
2023-02-14T12:44:48.636Z,66.64
2023-02-14T12:47:17.766Z,64.62
2023-02-14T12:49:49.442Z,64.39
2023-02-14T12:52:01.033Z,65.39
2023-02-14T12:54:22.105Z,65.79
2023-02-14T12:56:37.224Z,62.62
2023-02-14T12:58:50.737Z,63.02
2023-02-14T13:01:06.199Z,63.61
2023-02-14T13:03:28.249Z,58.64
2023-02-14T13:05:46.501Z,59.30
2023-02-14T13:08:14.843Z,61.69
2023-02-14T13:10:32.698Z,60.00
2023-02-14T13:12:42.118Z,62.93
2023-02-14T13:14:59.317Z,63.57
2023-02-14T13:17:09.150Z,61.28
2023-02-14T13:19:22.255Z,59.81
2023-02-14T13:21:28.930Z,58.28
2023-02-14T13:23:37.266Z,55.87
2023-02-14T13:25:49.860Z,57.32
2023-02-14T13:27:52.761Z,60.35
2023-02-14T13:29:59.064Z,60.92
2023-02-14T13:32:04.028Z,63.51
2023-02-14T13:34:10.131Z,63.69
2023-02-14T13:36:14.442Z,63.95
2023-02-14T13:38:19.617Z,63.80
2023-02-14T13:40:24.817Z,61.37
2023-02-14T13:42:55.504Z,62.03
2023-02-14T13:44:58.435Z,62.74
2023-02-14T13:47:01.179Z,62.75
2023-02-14T13:49:17.113Z,62.07
2023-02-14T13:51:19.707Z,59.64
2023-02-14T13:53:36.947Z,59.37
2023-02-14T13:55:45.582Z,61.28
2023-02-14T13:58:04.206Z,62.99
2023-02-14T14:00:37.307Z,62.67
2023-02-14T14:02:45.413Z,61.61
2023-02-14T14:04:48.090Z,62.79
2023-02-14T14:07:17.630Z,62.76
2023-02-14T14:09:53.466Z,63.01
2023-02-14T14:11:56.348Z,62.66
2023-02-14T14:14:02.551Z,62.28
2023-02-14T14:16:27.373Z,62.34
2023-02-14T14:18:42.697Z,63.46
2023-02-14T14:20:47.875Z,64.17
2023-02-14T14:22:52.942Z,64.36
2023-02-14T14:25:01.885Z,65.83
2023-02-14T14:27:07.856Z,65.68
2023-02-14T14:29:17.241Z,65.40
2023-02-14T14:31:21.027Z,66.12
2023-02-14T14:33:30.100Z,66.38
2023-02-14T14:35:32.766Z,66.92
2023-02-14T14:37:37.433Z,66.93
2023-02-14T14:39:40.286Z,66.82
2023-02-14T14:41:43.016Z,66.87
2023-02-14T14:43:45.909Z,68.31
2023-02-14T14:45:52.885Z,67.84
2023-02-14T14:47:58.617Z,67.75
2023-02-14T14:50:07.526Z,68.28
2023-02-14T14:52:25.457Z,68.57
2023-02-14T14:54:30.057Z,68.85
2023-02-14T14:56:35.841Z,69.13
2023-02-14T14:58:40.279Z,69.02
2023-02-14T15:00:53.786Z,68.55
2023-02-14T15:03:02.772Z,70.14
2023-02-14T15:05:26.473Z,69.64
2023-02-14T15:07:34.010Z,70.27
2023-02-14T15:09:36.951Z,70.51
2023-02-14T15:11:59.205Z,71.24
2023-02-14T15:14:05.678Z,70.93
2023-02-14T15:16:09.785Z,71.06
2023-02-14T15:18:14.271Z,70.63
2023-02-14T15:20:20.179Z,71.30
2023-02-14T15:22:26.562Z,71.73
2023-02-14T15:24:30.464Z,71.82
2023-02-14T15:26:36.400Z,72.22
2023-02-14T15:28:39.123Z,72.81
2023-02-14T15:30:44.113Z,72.92
2023-02-14T15:32:50.262Z,72.46
2023-02-14T15:34:53.766Z,72.78
2023-02-14T15:37:03.430Z,72.95
2023-02-14T15:39:09.495Z,73.45
2023-02-14T15:41:14.887Z,73.54
2023-02-14T15:43:27.768Z,73.63
2023-02-14T15:45:31.739Z,74.45
2023-02-14T15:47:34.572Z,74.55
2023-02-14T15:49:41.127Z,75.21
2023-02-14T15:51:44.377Z,75.23
2023-02-14T15:53:52.377Z,75.70
2023-02-14T15:55:56.158Z,76.77
2023-02-14T15:58:03.668Z,76.71
2023-02-14T16:00:11.378Z,77.81
2023-02-14T16:02:28.957Z,78.30
2023-02-14T16:04:34.544Z,79.27
2023-02-14T16:06:40.383Z,79.89
2023-02-14T16:08:43.017Z,80.19
2023-02-14T16:11:00.003Z,81.75
2023-02-14T16:13:09.647Z,82.32
2023-02-14T16:15:20.215Z,83.63
2023-02-14T16:17:33.287Z,84.07
2023-02-14T16:19:38.797Z,85.26
2023-02-14T16:21:57.177Z,85.57
2023-02-14T16:24:13.148Z,85.48
2023-02-14T16:26:16.170Z,86.49
2023-02-14T16:28:19.040Z,87.04
2023-02-14T16:30:22.168Z,87.35
2023-02-14T16:32:25.365Z,88.07
2023-02-14T16:34:28.850Z,87.91
2023-02-14T16:36:33.883Z,89.88
2023-02-14T16:38:43.733Z,90.41
2023-02-14T16:40:48.690Z,90.70
2023-02-14T16:42:51.402Z,90.61
2023-02-14T16:44:54.283Z,91.29
2023-02-14T16:46:56.935Z,91.84
2023-02-14T16:48:59.859Z,91.81
2023-02-14T16:51:02.812Z,93.07
2023-02-14T16:53:07.103Z,93.02
2023-02-14T16:55:19.849Z,93.54
2023-02-14T16:57:27.452Z,93.78
2023-02-14T16:59:30.798Z,94.68
2023-02-14T17:01:33.810Z,94.70
2023-02-14T17:03:36.500Z,95.65
2023-02-14T17:05:41.760Z,95.61
2023-02-14T17:07:44.619Z,95.45
2023-02-14T17:09:51.112Z,96.12
2023-02-14T17:11:58.599Z,97.13
2023-02-14T17:14:01.425Z,97.69
2023-02-14T17:16:06.249Z,98.02
2023-02-14T17:18:13.023Z,99.02
2023-02-14T17:20:19.289Z,99.67
2023-02-14T17:22:22.042Z,99.91
2023-02-14T17:24:24.831Z,99.80
2023-02-14T17:26:29.774Z,100.00
2023-02-14T17:28:34.005Z,100.00
2023-02-14T17:30:36.795Z,100.00
2023-02-14T17:32:39.557Z,100.00
2023-02-14T17:34:42.308Z,100.00
2023-02-14T17:36:45.040Z,100.00
2023-02-14T17:38:47.974Z,100.00
2023-02-14T17:40:51.017Z,100.00
2023-02-14T17:42:54.111Z,100.00
2023-02-14T17:44:58.480Z,100.00
2023-02-14T17:47:01.316Z,100.00
2023-02-14T17:49:04.200Z,100.00
2023-02-14T17:51:08.367Z,100.00
2023-02-14T17:53:12.575Z,100.00
2023-02-14T17:55:16.262Z,100.00
2023-02-14T17:57:19.496Z,100.00
2023-02-14T17:59:22.427Z,100.00
2023-02-14T18:01:28.616Z,100.00
2023-02-14T18:03:31.509Z,100.00
2023-02-14T18:05:37.041Z,100.00
2023-02-14T18:07:40.212Z,100.00
2023-02-14T18:09:43.261Z,100.00
2023-02-14T18:11:46.758Z,100.00
2023-02-14T18:13:50.239Z,100.00
2023-02-14T18:15:53.763Z,100.00
2023-02-14T18:17:57.890Z,100.00
2023-02-14T18:20:00.640Z,100.00
2023-02-14T18:22:03.502Z,100.00
2023-02-14T18:24:06.696Z,100.00
2023-02-14T18:26:13.028Z,100.00
2023-02-14T18:28:16.420Z,100.00
2023-02-14T18:30:19.502Z,100.00
2023-02-14T18:32:22.138Z,100.00
2023-02-14T18:34:26.122Z,100.00
2023-02-14T18:36:29.521Z,100.00
2023-02-14T18:38:32.222Z,100.00
2023-02-14T18:40:35.382Z,100.00
2023-02-14T18:42:38.132Z,100.00
2023-02-14T18:44:40.835Z,100.00
2023-02-14T18:46:43.471Z,100.00
2023-02-14T18:48:47.395Z,100.00
2023-02-14T18:50:52.822Z,100.00
2023-02-14T18:52:55.679Z,100.00
2023-02-14T18:54:59.331Z,100.00
2023-02-14T18:57:02.071Z,100.00
2023-02-14T18:59:06.485Z,100.00
2023-02-14T19:01:09.908Z,100.00
2023-02-14T19:03:12.699Z,100.00
2023-02-14T19:05:15.395Z,100.00
2023-02-14T19:07:19.395Z,100.00
2023-02-14T19:09:22.089Z,100.00
2023-02-14T19:11:27.350Z,100.00
2023-02-14T19:13:32.115Z,100.00
2023-02-14T19:15:34.781Z,100.00
2023-02-14T19:17:38.961Z,100.00
2023-02-14T19:19:41.703Z,100.00
2023-02-14T19:21:44.418Z,100.00
2023-02-14T19:23:49.544Z,100.00
2023-02-14T19:25:52.293Z,100.00
2023-02-14T19:27:55.066Z,100.00
2023-02-14T19:29:57.725Z,100.00
2023-02-14T19:32:00.879Z,100.00
2023-02-14T19:34:04.311Z,100.00
2023-02-14T19:36:09.158Z,100.00
2023-02-14T19:38:12.133Z,100.00
2023-02-14T19:40:16.315Z,100.00
2023-02-14T19:42:18.942Z,100.00
2023-02-14T19:44:23.614Z,100.00
2023-02-14T19:46:29.280Z,100.00
2023-02-14T19:48:31.953Z,100.00
2023-02-14T19:50:34.631Z,100.00
2023-02-14T19:52:37.329Z,100.00
2023-02-14T19:54:40.220Z,100.00
2023-02-14T19:56:46.125Z,100.00
2023-02-14T19:58:49.248Z,100.00
2023-02-14T20:00:56.859Z,100.00
2023-02-14T20:03:01.716Z,100.00
2023-02-14T20:05:04.496Z,100.00
2023-02-14T20:07:07.147Z,100.00
2023-02-14T20:09:10.021Z,100.00
2023-02-14T20:11:25.638Z,100.00
2023-02-14T20:13:29.573Z,100.00
2023-02-14T20:15:32.425Z,100.00
2023-02-14T20:17:35.450Z,100.00
2023-02-14T20:19:38.168Z,100.00
2023-02-14T20:21:42.619Z,100.00
2023-02-14T20:23:45.996Z,100.00
2023-02-14T20:25:48.583Z,100.00
2023-02-14T20:27:54.660Z,100.00
2023-02-14T20:29:58.649Z,100.00
2023-02-14T20:32:03.600Z,100.00
2023-02-14T20:34:07.121Z,100.00
2023-02-14T20:36:11.013Z,100.00
2023-02-14T20:38:13.638Z,100.00
2023-02-14T20:40:16.428Z,100.00
2023-02-14T20:42:19.111Z,100.00
2023-02-14T20:44:22.192Z,100.00
2023-02-14T20:46:26.278Z,100.00
2023-02-14T20:48:29.648Z,100.00
2023-02-14T20:50:32.659Z,100.00
2023-02-14T20:52:37.107Z,100.00
2023-02-14T20:54:40.374Z,100.00
2023-02-14T20:56:43.151Z,100.00
2023-02-14T20:58:46.094Z,100.00
2023-02-14T21:00:48.984Z,100.00
2023-02-14T21:02:53.326Z,100.00
2023-02-14T21:05:00.090Z,100.00
2023-02-14T21:07:07.698Z,100.00
2023-02-14T21:09:10.408Z,100.00
2023-02-14T21:11:15.687Z,100.00
2023-02-14T21:13:18.368Z,100.00
2023-02-14T21:15:21.054Z,100.00
2023-02-14T21:17:23.815Z,100.00
2023-02-14T21:19:28.532Z,100.00
2023-02-14T21:21:34.674Z,100.00
2023-02-14T21:23:37.334Z,100.00
2023-02-14T21:25:40.400Z,100.00
2023-02-14T21:27:43.194Z,100.00
2023-02-14T21:29:45.858Z,100.00
2023-02-14T21:31:48.544Z,100.00
2023-02-14T21:33:53.305Z,100.00
2023-02-14T21:35:57.328Z,100.00
2023-02-14T21:38:00.104Z,100.00
2023-02-14T21:40:02.929Z,100.00
2023-02-14T21:42:05.706Z,100.00
2023-02-14T21:44:08.353Z,100.00
2023-02-14T21:46:11.689Z,100.00
2023-02-14T21:48:31.972Z,100.00
2023-02-14T21:50:34.613Z,100.00
2023-02-14T21:52:38.758Z,100.00
2023-02-14T21:54:41.474Z,100.00
2023-02-14T21:56:44.543Z,100.00
2023-02-14T21:58:48.342Z,100.00
2023-02-14T22:00:50.996Z,100.00
2023-02-14T22:02:53.872Z,100.00
2023-02-14T22:04:56.748Z,100.00
2023-02-14T22:06:59.384Z,100.00
2023-02-14T22:09:03.731Z,100.00
2023-02-14T22:11:07.800Z,100.00
2023-02-14T22:13:10.550Z,100.00
2023-02-14T22:15:13.395Z,100.00
2023-02-14T22:17:16.113Z,100.00
2023-02-14T22:19:18.881Z,100.00
2023-02-14T22:21:23.539Z,100.00
2023-02-14T22:23:28.998Z,100.00
2023-02-14T22:25:33.276Z,100.00
2023-02-14T22:27:39.334Z,100.00
2023-02-14T22:29:42.081Z,100.00
2023-02-14T22:31:45.039Z,100.00
2023-02-14T22:33:49.166Z,100.00
2023-02-14T22:35:55.411Z,100.00
2023-02-14T22:37:58.134Z,100.00
2023-02-14T22:40:00.818Z,100.00
2023-02-14T22:42:06.855Z,100.00
2023-02-14T22:44:11.619Z,100.00
2023-02-14T22:46:16.922Z,100.00
2023-02-14T22:48:20.416Z,100.00
2023-02-14T22:50:23.056Z,100.00
2023-02-14T22:52:25.799Z,100.00
2023-02-14T22:54:28.553Z,100.00
2023-02-14T22:56:34.212Z,100.00
2023-02-14T22:58:38.320Z,100.00
2023-02-14T23:00:40.937Z,100.00
2023-02-14T23:02:43.743Z,100.00
2023-02-14T23:04:46.775Z,100.00
2023-02-14T23:06:49.751Z,100.00
2023-02-14T23:08:53.246Z,100.00
2023-02-14T23:10:55.980Z,100.00
2023-02-14T23:13:16.286Z,100.00
2023-02-14T23:15:34.314Z,100.00
2023-02-14T23:17:54.747Z,100.00
2023-02-14T23:20:15.333Z,100.00
2023-02-14T23:22:20.451Z,100.00
2023-02-14T23:24:23.900Z,100.00
2023-02-14T23:26:26.516Z,100.00
2023-02-14T23:28:29.472Z,100.00
2023-02-14T23:30:33.443Z,100.00
2023-02-14T23:32:36.175Z,100.00
2023-02-14T23:34:41.215Z,100.00
2023-02-14T23:36:44.080Z,100.00
2023-02-14T23:38:46.712Z,100.00
2023-02-14T23:41:06.854Z,100.00
2023-02-14T23:43:09.487Z,100.00
2023-02-14T23:45:29.856Z,100.00
2023-02-14T23:47:34.493Z,100.00
2023-02-14T23:49:39.034Z,100.00
2023-02-14T23:51:42.305Z,100.00
2023-02-14T23:53:44.898Z,100.00
2023-02-14T23:55:47.554Z,100.00
2023-02-14T23:57:50.193Z,100.00
2023-02-14T23:59:52.983Z,100.00
